sensor_id;sensor_type;location;lat;lon;timestamp;pressure;altitude;pressure_sealevel;temperature;humidity
23473;BME280;11909;52.516;13.564;2023-01-26T00:02:04;101756.31;;;-0.49;100.00
23473;BME280;11909;52.516;13.564;2023-01-26T00:04:32;101757.38;;;-0.35;100.00
23473;BME280;11909;52.516;13.564;2023-01-26T00:07:00;101759.97;;;-0.41;100.00
23473;BME280;11909;52.516;13.564;2023-01-26T00:09:28;101755.03;;;-0.38;100.00
23473;BME280;11909;52.516;13.564;2023-01-26T00:11:55;101755.78;;;-0.44;100.00
23473;BME280;11909;52.516;13.564;2023-01-26T00:14:23;101749.25;;;-0.50;100.00
23473;BME280;11909;52.516;13.564;2023-01-26T00:16:52;101754.09;;;-0.45;100.00
23473;BME280;11909;52.516;13.564;2023-01-26T00:19:20;101750.91;;;-0.49;100.00
23473;BME280;11909;52.516;13.564;2023-01-26T00:21:47;101741.34;;;-0.51;100.00
23473;BME280;11909;52.516;13.564;2023-01-26T00:24:15;101741.47;;;-0.45;100.00
23473;BME280;11909;52.516;13.564;2023-01-26T00:26:43;101737.91;;;-0.45;100.00
23473;BME280;11909;52.516;13.564;2023-01-26T00:29:11;101725.72;;;-0.56;100.00
23473;BME280;11909;52.516;13.564;2023-01-26T00:31:38;101729.41;;;-0.57;100.00
23473;BME280;11909;52.516;13.564;2023-01-26T00:34:07;101717.97;;;-0.59;100.00
23473;BME280;11909;52.516;13.564;2023-01-26T00:36:35;101723.41;;;-0.44;100.00
23473;BME280;11909;52.516;13.564;2023-01-26T00:39:03;101712.13;;;-0.48;100.00
23473;BME280;11909;52.516;13.564;2023-01-26T00:41:30;101713.16;;;-0.49;100.00
23473;BME280;11909;52.516;13.564;2023-01-26T00:44:16;101723.31;;;-0.36;100.00
23473;BME280;11909;52.516;13.564;2023-01-26T00:46:43;101707.06;;;-0.42;100.00
23473;BME280;11909;52.516;13.564;2023-01-26T00:49:12;101712.13;;;-0.48;100.00
23473;BME280;11909;52.516;13.564;2023-01-26T00:51:40;101710.28;;;-0.47;100.00
23473;BME280;11909;52.516;13.564;2023-01-26T00:54:08;101716.06;;;-0.50;100.00
23473;BME280;11909;52.516;13.564;2023-01-26T00:56:35;101719.56;;;-0.50;100.00
23473;BME280;11909;52.516;13.564;2023-01-26T00:59:03;101713.47;;;-0.44;100.00
23473;BME280;11909;52.516;13.564;2023-01-26T01:01:31;101710.56;;;-0.42;100.00
23473;BME280;11909;52.516;13.564;2023-01-26T01:03:59;101712.38;;;-0.34;100.00
23473;BME280;11909;52.516;13.564;2023-01-26T01:06:28;101710.50;;;-0.34;100.00
23473;BME280;11909;52.516;13.564;2023-01-26T01:08:55;101717.38;;;-0.31;100.00
23473;BME280;11909;52.516;13.564;2023-01-26T01:11:23;101708.09;;;-0.28;100.00
23473;BME280;11909;52.516;13.564;2023-01-26T01:13:51;101702.69;;;-0.28;100.00
23473;BME280;11909;52.516;13.564;2023-01-26T01:16:19;101706.22;;;-0.28;100.00
23473;BME280;11909;52.516;13.564;2023-01-26T01:18:46;101708.75;;;-0.26;100.00
23473;BME280;11909;52.516;13.564;2023-01-26T01:21:16;101702.88;;;-0.30;100.00
23473;BME280;11909;52.516;13.564;2023-01-26T01:23:45;101703.25;;;-0.33;100.00
23473;BME280;11909;52.516;13.564;2023-01-26T01:26:13;101701.19;;;-0.31;100.00
23473;BME280;11909;52.516;13.564;2023-01-26T01:28:42;101696.19;;;-0.34;100.00
23473;BME280;11909;52.516;13.564;2023-01-26T01:31:11;101696.34;;;-0.36;100.00
23473;BME280;11909;52.516;13.564;2023-01-26T01:33:40;101692.63;;;-0.35;100.00
23473;BME280;11909;52.516;13.564;2023-01-26T01:36:10;101691.31;;;-0.39;100.00
23473;BME280;11909;52.516;13.564;2023-01-26T01:38:38;101693.38;;;-0.41;100.00
23473;BME280;11909;52.516;13.564;2023-01-26T01:41:08;101691.41;;;-0.47;100.00
23473;BME280;11909;52.516;13.564;2023-01-26T01:43:36;101696.69;;;-0.54;100.00
23473;BME280;11909;52.516;13.564;2023-01-26T01:46:06;101692.16;;;-0.53;100.00
23473;BME280;11909;52.516;13.564;2023-01-26T01:48:46;101687.59;;;-0.53;100.00
23473;BME280;11909;52.516;13.564;2023-01-26T01:51:18;101677.94;;;-0.47;100.00
23473;BME280;11909;52.516;13.564;2023-01-26T01:53:49;101667.63;;;-0.44;100.00
23473;BME280;11909;52.516;13.564;2023-01-26T01:56:22;101667.03;;;-0.39;100.00
23473;BME280;11909;52.516;13.564;2023-01-26T01:58:54;101668.06;;;-0.40;100.00
23473;BME280;11909;52.516;13.564;2023-01-26T02:01:24;101672.44;;;-0.39;100.00
23473;BME280;11909;52.516;13.564;2023-01-26T02:03:55;101669.75;;;-0.39;100.00
23473;BME280;11909;52.516;13.564;2023-01-26T02:06:29;101668.94;;;-0.39;100.00
23473;BME280;11909;52.516;13.564;2023-01-26T02:08:59;101667.53;;;-0.35;100.00
23473;BME280;11909;52.516;13.564;2023-01-26T02:11:32;101667.69;;;-0.37;100.00
23473;BME280;11909;52.516;13.564;2023-01-26T02:14:04;101662.88;;;-0.41;100.00
23473;BME280;11909;52.516;13.564;2023-01-26T02:16:33;101662.50;;;-0.38;100.00
23473;BME280;11909;52.516;13.564;2023-01-26T02:19:01;101648.81;;;-0.37;100.00
23473;BME280;11909;52.516;13.564;2023-01-26T02:21:29;101639.53;;;-0.34;100.00
23473;BME280;11909;52.516;13.564;2023-01-26T02:24:06;101640.81;;;-0.30;100.00
23473;BME280;11909;52.516;13.564;2023-01-26T02:26:39;101637.69;;;-0.34;100.00
23473;BME280;11909;52.516;13.564;2023-01-26T02:29:08;101632.09;;;-0.32;100.00
23473;BME280;11909;52.516;13.564;2023-01-26T02:31:37;101638.50;;;-0.33;100.00
23473;BME280;11909;52.516;13.564;2023-01-26T02:34:06;101640.19;;;-0.32;100.00
23473;BME280;11909;52.516;13.564;2023-01-26T02:36:33;101626.78;;;-0.40;100.00
23473;BME280;11909;52.516;13.564;2023-01-26T02:39:16;101617.31;;;-0.36;100.00
23473;BME280;11909;52.516;13.564;2023-01-26T02:41:49;101607.25;;;-0.27;100.00
23473;BME280;11909;52.516;13.564;2023-01-26T02:44:35;101605.38;;;-0.27;100.00
23473;BME280;11909;52.516;13.564;2023-01-26T02:47:10;101605.75;;;-0.30;100.00
23473;BME280;11909;52.516;13.564;2023-01-26T02:49:38;101603.44;;;-0.33;100.00
23473;BME280;11909;52.516;13.564;2023-01-26T02:52:18;101604.00;;;-0.38;100.00
23473;BME280;11909;52.516;13.564;2023-01-26T02:54:46;101607.16;;;-0.34;100.00
23473;BME280;11909;52.516;13.564;2023-01-26T02:57:32;101606.88;;;-0.39;100.00
23473;BME280;11909;52.516;13.564;2023-01-26T03:00:01;101610.22;;;-0.37;100.00
23473;BME280;11909;52.516;13.564;2023-01-26T03:02:28;101610.13;;;-0.29;100.00
23473;BME280;11909;52.516;13.564;2023-01-26T03:04:56;101611.34;;;-0.32;100.00
23473;BME280;11909;52.516;13.564;2023-01-26T03:07:24;101609.84;;;-0.34;100.00
23473;BME280;11909;52.516;13.564;2023-01-26T03:09:51;101604.19;;;-0.39;100.00
23473;BME280;11909;52.516;13.564;2023-01-26T03:12:19;101612.72;;;-0.36;100.00
23473;BME280;11909;52.516;13.564;2023-01-26T03:14:49;101607.34;;;-0.36;100.00
23473;BME280;11909;52.516;13.564;2023-01-26T03:17:37;101615.72;;;-0.31;100.00
23473;BME280;11909;52.516;13.564;2023-01-26T03:20:06;101604.47;;;-0.34;100.00
23473;BME280;11909;52.516;13.564;2023-01-26T03:22:51;101607.72;;;-0.39;100.00
23473;BME280;11909;52.516;13.564;2023-01-26T03:25:36;101610.34;;;-0.46;100.00
23473;BME280;11909;52.516;13.564;2023-01-26T03:28:22;101602.59;;;-0.49;100.00
23473;BME280;11909;52.516;13.564;2023-01-26T03:30:53;101599.25;;;-0.51;100.00
23473;BME280;11909;52.516;13.564;2023-01-26T03:33:22;101602.16;;;-0.52;100.00
23473;BME280;11909;52.516;13.564;2023-01-26T03:35:52;101596.19;;;-0.48;100.00
23473;BME280;11909;52.516;13.564;2023-01-26T03:38:20;101593.47;;;-0.48;100.00
23473;BME280;11909;52.516;13.564;2023-01-26T03:40:47;101592.66;;;-0.33;100.00
23473;BME280;11909;52.516;13.564;2023-01-26T03:43:33;101599.59;;;-0.24;100.00
23473;BME280;11909;52.516;13.564;2023-01-26T03:46:19;101603.16;;;-0.38;100.00
23473;BME280;11909;52.516;13.564;2023-01-26T03:49:05;101604.09;;;-0.46;100.00
23473;BME280;11909;52.516;13.564;2023-01-26T03:51:50;101599.44;;;-0.52;100.00
23473;BME280;11909;52.516;13.564;2023-01-26T03:54:35;101604.75;;;-0.44;100.00
23473;BME280;11909;52.516;13.564;2023-01-26T03:57:20;101602.16;;;-0.52;100.00
23473;BME280;11909;52.516;13.564;2023-01-26T03:59:48;101599.44;;;-0.52;100.00
23473;BME280;11909;52.516;13.564;2023-01-26T04:02:17;101607.81;;;-0.47;100.00
23473;BME280;11909;52.516;13.564;2023-01-26T04:05:03;101603.25;;;-0.47;100.00
23473;BME280;11909;52.516;13.564;2023-01-26T04:07:48;101589.97;;;-0.48;100.00
23473;BME280;11909;52.516;13.564;2023-01-26T04:10:34;101587.34;;;-0.41;100.00
23473;BME280;11909;52.516;13.564;2023-01-26T04:13:01;101580.56;;;-0.37;100.00
23473;BME280;11909;52.516;13.564;2023-01-26T04:15:47;101587.91;;;-0.31;100.00
23473;BME280;11909;52.516;13.564;2023-01-26T04:18:33;101578.41;;;-0.27;100.00
23473;BME280;11909;52.516;13.564;2023-01-26T04:21:19;101579.34;;;-0.20;100.00
23473;BME280;11909;52.516;13.564;2023-01-26T04:23:59;101580.63;;;-0.16;100.00
23473;BME280;11909;52.516;13.564;2023-01-26T04:26:29;101572.97;;;-0.12;100.00
23473;BME280;11909;52.516;13.564;2023-01-26T04:29:00;101570.09;;;-0.10;100.00
23473;BME280;11909;52.516;13.564;2023-01-26T04:31:28;101570.97;;;-0.10;100.00
23473;BME280;11909;52.516;13.564;2023-01-26T04:33:58;101569.00;;;-0.16;100.00
23473;BME280;11909;52.516;13.564;2023-01-26T04:36:26;101572.53;;;-0.16;100.00
23473;BME280;11909;52.516;13.564;2023-01-26T04:38:54;101568.56;;;-0.20;100.00
23473;BME280;11909;52.516;13.564;2023-01-26T04:41:22;101565.84;;;-0.20;100.00
23473;BME280;11909;52.516;13.564;2023-01-26T04:43:49;101570.66;;;-0.15;100.00
23473;BME280;11909;52.516;13.564;2023-01-26T04:46:17;101567.31;;;-0.17;100.00
23473;BME280;11909;52.516;13.564;2023-01-26T04:48:45;101565.84;;;-0.20;100.00
23473;BME280;11909;52.516;13.564;2023-01-26T04:51:15;101563.53;;;-0.23;100.00
23473;BME280;11909;52.516;13.564;2023-01-26T04:53:45;101558.88;;;-0.29;100.00
23473;BME280;11909;52.516;13.564;2023-01-26T04:56:18;101556.56;;;-0.32;100.00
23473;BME280;11909;52.516;13.564;2023-01-26T04:58:47;101562.34;;;-0.35;100.00
23473;BME280;11909;52.516;13.564;2023-01-26T05:01:16;101557.31;;;-0.38;100.00
23473;BME280;11909;52.516;13.564;2023-01-26T05:03:44;101536.13;;;-0.41;100.00
23473;BME280;11909;52.516;13.564;2023-01-26T05:06:13;101545.88;;;-0.40;100.00
23473;BME280;11909;52.516;13.564;2023-01-26T05:08:41;101547.72;;;-0.41;100.00
23473;BME280;11909;52.516;13.564;2023-01-26T05:11:09;101553.75;;;-0.39;100.00
23473;BME280;11909;52.516;13.564;2023-01-26T05:13:37;101539.63;;;-0.41;100.00
23473;BME280;11909;52.516;13.564;2023-01-26T05:16:05;101549.41;;;-0.40;100.00
23473;BME280;11909;52.516;13.564;2023-01-26T05:18:34;101540.75;;;-0.35;100.00
23473;BME280;11909;52.516;13.564;2023-01-26T05:21:01;101539.06;;;-0.36;100.00
23473;BME280;11909;52.516;13.564;2023-01-26T05:23:30;101543.63;;;-0.37;100.00
23473;BME280;11909;52.516;13.564;2023-01-26T05:25:58;101545.78;;;-0.32;100.00
23473;BME280;11909;52.516;13.564;2023-01-26T05:28:26;101543.44;;;-0.35;100.00
23473;BME280;11909;52.516;13.564;2023-01-26T05:30:53;101543.28;;;-0.34;100.00
23473;BME280;11909;52.516;13.564;2023-01-26T05:33:22;101544.75;;;-0.31;100.00
23473;BME280;11909;52.516;13.564;2023-01-26T05:35:50;101540.00;;;-0.29;100.00
23473;BME280;11909;52.516;13.564;2023-01-26T05:38:18;101545.66;;;-0.24;100.00
23473;BME280;11909;52.516;13.564;2023-01-26T05:40:47;101547.53;;;-0.24;100.00
23473;BME280;11909;52.516;13.564;2023-01-26T05:43:15;101555.53;;;-0.31;100.00
23473;BME280;11909;52.516;13.564;2023-01-26T05:45:42;101556.09;;;-0.36;100.00
23473;BME280;11909;52.516;13.564;2023-01-26T05:48:10;101558.34;;;-0.39;100.00
23473;BME280;11909;52.516;13.564;2023-01-26T05:50:38;101562.25;;;-0.42;100.00
23473;BME280;11909;52.516;13.564;2023-01-26T05:53:05;101555.66;;;-0.39;100.00
23473;BME280;11909;52.516;13.564;2023-01-26T05:55:33;101553.75;;;-0.39;100.00
23473;BME280;11909;52.516;13.564;2023-01-26T05:58:02;101559.00;;;-0.37;100.00
23473;BME280;11909;52.516;13.564;2023-01-26T06:00:30;101555.44;;;-0.38;100.00
23473;BME280;11909;52.516;13.564;2023-01-26T06:02:58;101551.06;;;-0.39;100.00
23473;BME280;11909;52.516;13.564;2023-01-26T06:05:25;101548.19;;;-0.37;100.00
23473;BME280;11909;52.516;13.564;2023-01-26T06:07:53;101549.41;;;-0.40;100.00
23473;BME280;11909;52.516;13.564;2023-01-26T06:10:21;101551.66;;;-0.44;100.00
23473;BME280;11909;52.516;13.564;2023-01-26T06:12:48;101561.13;;;-0.48;100.00
23473;BME280;11909;52.516;13.564;2023-01-26T06:15:17;101559.16;;;-0.39;100.00
23473;BME280;11909;52.516;13.564;2023-01-26T06:17:45;101565.84;;;-0.50;100.00
23473;BME280;11909;52.516;13.564;2023-01-26T06:20:13;101563.25;;;-0.43;100.00
23473;BME280;11909;52.516;13.564;2023-01-26T06:22:41;101571.19;;;-0.41;100.00
23473;BME280;11909;52.516;13.564;2023-01-26T06:25:08;101569.50;;;-0.42;100.00
23473;BME280;11909;52.516;13.564;2023-01-26T06:27:36;101565.56;;;-0.40;100.00
23473;BME280;11909;52.516;13.564;2023-01-26T06:30:08;101563.47;;;-0.45;100.00
23473;BME280;11909;52.516;13.564;2023-01-26T06:32:38;101558.41;;;-0.48;100.00
23473;BME280;11909;52.516;13.564;2023-01-26T06:35:07;101560.94;;;-0.46;100.00
23473;BME280;11909;52.516;13.564;2023-01-26T06:37:35;101565.22;;;-0.52;100.00
23473;BME280;11909;52.516;13.564;2023-01-26T06:40:03;101562.41;;;-0.59;100.00
23473;BME280;11909;52.516;13.564;2023-01-26T06:42:30;101564.56;;;-0.54;100.00
23473;BME280;11909;52.516;13.564;2023-01-26T06:44:58;101566.22;;;-0.53;100.00
23473;BME280;11909;52.516;13.564;2023-01-26T06:47:26;101569.88;;;-0.46;100.00
23473;BME280;11909;52.516;13.564;2023-01-26T06:49:55;101567.56;;;-0.34;100.00
23473;BME280;11909;52.516;13.564;2023-01-26T06:52:29;101571.25;;;-0.35;100.00
23473;BME280;11909;52.516;13.564;2023-01-26T06:54:57;101567.91;;;-0.37;100.00
23473;BME280;11909;52.516;13.564;2023-01-26T06:57:26;101564.84;;;-0.34;100.00
23473;BME280;11909;52.516;13.564;2023-01-26T06:59:54;101570.50;;;-0.28;100.00
23473;BME280;11909;52.516;13.564;2023-01-26T07:02:23;101565.94;;;-0.28;100.00
23473;BME280;11909;52.516;13.564;2023-01-26T07:04:51;101569.41;;;-0.34;100.00
23473;BME280;11909;52.516;13.564;2023-01-26T07:07:20;101563.81;;;-0.33;100.00
23473;BME280;11909;52.516;13.564;2023-01-26T07:09:47;101569.50;;;-0.27;100.00
23473;BME280;11909;52.516;13.564;2023-01-26T07:12:15;101562.44;;;-0.28;100.00
23473;BME280;11909;52.516;13.564;2023-01-26T07:14:43;101572.38;;;-0.29;100.00
23473;BME280;11909;52.516;13.564;2023-01-26T07:17:10;101577.38;;;-0.26;100.00
23473;BME280;11909;52.516;13.564;2023-01-26T07:19:38;101575.31;;;-0.24;100.00
23473;BME280;11909;52.516;13.564;2023-01-26T07:22:06;101572.75;;;-0.32;100.00
23473;BME280;11909;52.516;13.564;2023-01-26T07:24:35;101571.91;;;-0.33;100.00
23473;BME280;11909;52.516;13.564;2023-01-26T07:27:03;101567.56;;;-0.34;100.00
23473;BME280;11909;52.516;13.564;2023-01-26T07:29:30;101562.50;;;-0.37;100.00
23473;BME280;11909;52.516;13.564;2023-01-26T07:31:58;101562.50;;;-0.37;100.00
23473;BME280;11909;52.516;13.564;2023-01-26T07:34:26;101561.94;;;-0.32;100.00
23473;BME280;11909;52.516;13.564;2023-01-26T07:36:53;101575.53;;;-0.25;100.00
23473;BME280;11909;52.516;13.564;2023-01-26T07:39:21;101576.72;;;-0.28;100.00
23473;BME280;11909;52.516;13.564;2023-01-26T07:41:50;101571.34;;;-0.28;100.00
23473;BME280;11909;52.516;13.564;2023-01-26T07:44:18;101575.44;;;-0.32;100.00
23473;BME280;11909;52.516;13.564;2023-01-26T07:46:45;101570.69;;;-0.30;100.00
23473;BME280;11909;52.516;13.564;2023-01-26T07:49:13;101566.97;;;-0.29;100.00
23473;BME280;11909;52.516;13.564;2023-01-26T07:51:41;101567.72;;;-0.35;100.00
23473;BME280;11909;52.516;13.564;2023-01-26T07:54:09;101576.47;;;-0.33;100.00
23473;BME280;11909;52.516;13.564;2023-01-26T07:56:38;101575.91;;;-0.28;100.00
23473;BME280;11909;52.516;13.564;2023-01-26T07:59:09;101581.69;;;-0.32;100.00
23473;BME280;11909;52.516;13.564;2023-01-26T08:01:37;101576.28;;;-0.32;100.00
23473;BME280;11909;52.516;13.564;2023-01-26T08:04:05;101572.56;;;-0.31;100.00
23473;BME280;11909;52.516;13.564;2023-01-26T08:06:32;101573.66;;;-0.25;100.00
23473;BME280;11909;52.516;13.564;2023-01-26T08:09:00;101584.28;;;-0.23;100.00
23473;BME280;11909;52.516;13.564;2023-01-26T08:11:28;101590.69;;;-0.24;100.00
23473;BME280;11909;52.516;13.564;2023-01-26T08:13:56;101586.50;;;-0.27;100.00
23473;BME280;11909;52.516;13.564;2023-01-26T08:16:25;101587.25;;;-0.33;100.00
23473;BME280;11909;52.516;13.564;2023-01-26T08:18:52;101577.59;;;-0.27;100.00
23473;BME280;11909;52.516;13.564;2023-01-26T08:21:20;101575.72;;;-0.27;100.00
23473;BME280;11909;52.516;13.564;2023-01-26T08:23:48;101583.75;;;-0.34;100.00
23473;BME280;11909;52.516;13.564;2023-01-26T08:26:18;101584.38;;;-0.47;100.00
23473;BME280;11909;52.516;13.564;2023-01-26T08:28:46;101586.59;;;-0.35;100.00
23473;BME280;11909;52.516;13.564;2023-01-26T08:31:17;101588.66;;;-0.37;100.00
23473;BME280;11909;52.516;13.564;2023-01-26T08:33:48;101587.16;;;-0.40;100.00
23473;BME280;11909;52.516;13.564;2023-01-26T08:36:17;101584.72;;;-0.35;100.00
23473;BME280;11909;52.516;13.564;2023-01-26T08:38:48;101579.28;;;-0.41;100.00
23473;BME280;11909;52.516;13.564;2023-01-26T08:41:16;101593.78;;;-0.42;100.00
23473;BME280;11909;52.516;13.564;2023-01-26T08:43:44;101588.47;;;-0.51;100.00
23473;BME280;11909;52.516;13.564;2023-01-26T08:46:11;101590.22;;;-0.58;100.00
23473;BME280;11909;52.516;13.564;2023-01-26T08:48:39;101576.66;;;-0.50;100.00
23473;BME280;11909;52.516;13.564;2023-01-26T08:51:08;101586.88;;;-0.45;100.00
23473;BME280;11909;52.516;13.564;2023-01-26T08:53:36;101594.31;;;-0.47;100.00
23473;BME280;11909;52.516;13.564;2023-01-26T08:56:06;101589.97;;;-0.48;100.00
23473;BME280;11909;52.516;13.564;2023-01-26T08:58:34;101594.88;;;-0.52;100.00
23473;BME280;11909;52.516;13.564;2023-01-26T09:01:03;101593.56;;;-0.56;100.00
23473;BME280;11909;52.516;13.564;2023-01-26T09:03:31;101594.44;;;-0.55;100.00
23473;BME280;11909;52.516;13.564;2023-01-26T09:05:59;101594.69;;;-0.50;100.00
23473;BME280;11909;52.516;13.564;2023-01-26T09:08:29;101603.91;;;-0.45;100.00
23473;BME280;11909;52.516;13.564;2023-01-26T09:10:57;101595.53;;;-0.50;100.00
23473;BME280;11909;52.516;13.564;2023-01-26T09:13:25;101592.66;;;-0.48;100.00
23473;BME280;11909;52.516;13.564;2023-01-26T09:15:52;101595.53;;;-0.50;100.00
23473;BME280;11909;52.516;13.564;2023-01-26T09:18:20;101596.91;;;-0.54;100.00
23473;BME280;11909;52.516;13.564;2023-01-26T09:20:48;101596.38;;;-0.49;100.00
23473;BME280;11909;52.516;13.564;2023-01-26T09:23:16;101599.72;;;-0.47;100.00
23473;BME280;11909;52.516;13.564;2023-01-26T09:25:51;101601.50;;;-0.54;100.00
23473;BME280;11909;52.516;13.564;2023-01-26T09:28:19;101609.09;;;-0.43;100.00
23473;BME280;11909;52.516;13.564;2023-01-26T09:30:46;101612.19;;;-0.46;100.00
23473;BME280;11909;52.516;13.564;2023-01-26T09:33:15;101611.69;;;-0.50;100.00
23473;BME280;11909;52.516;13.564;2023-01-26T09:35:43;101609.75;;;-0.56;100.00
23473;BME280;11909;52.516;13.564;2023-01-26T09:38:12;101611.31;;;-0.62;100.00
23473;BME280;11909;52.516;13.564;2023-01-26T09:40:50;101618.31;;;-0.67;100.00
23473;BME280;11909;52.516;13.564;2023-01-26T09:43:29;101615.97;;;-0.70;100.00
23473;BME280;11909;52.516;13.564;2023-01-26T09:46:06;101610.88;;;-0.65;100.00
23473;BME280;11909;52.516;13.564;2023-01-26T09:48:43;101611.69;;;-0.65;100.00
23473;BME280;11909;52.516;13.564;2023-01-26T09:51:19;101601.56;;;-0.63;100.00
23473;BME280;11909;52.516;13.564;2023-01-26T09:53:53;101611.44;;;-0.55;100.00
23473;BME280;11909;52.516;13.564;2023-01-26T09:56:27;101608.09;;;-0.57;100.00
23473;BME280;11909;52.516;13.564;2023-01-26T09:59:01;101602.22;;;-0.61;100.00
23473;BME280;11909;52.516;13.564;2023-01-26T10:01:37;101607.06;;;-0.56;100.00
23473;BME280;11909;52.516;13.564;2023-01-26T10:04:12;101605.56;;;-0.59;100.00
23473;BME280;11909;52.516;13.564;2023-01-26T10:06:43;101602.41;;;-0.62;100.00
23473;BME280;11909;52.516;13.564;2023-01-26T10:09:14;101602.88;;;-0.59;100.00
23473;BME280;11909;52.516;13.564;2023-01-26T10:11:46;101600.28;;;-0.52;100.00
23473;BME280;11909;52.516;13.564;2023-01-26T10:14:18;101595.63;;;-0.58;100.00
23473;BME280;11909;52.516;13.564;2023-01-26T10:16:49;101595.25;;;-0.55;100.00
23473;BME280;11909;52.516;13.564;2023-01-26T10:19:27;101586.63;;;-0.50;100.00
23473;BME280;11909;52.516;13.564;2023-01-26T10:22:01;101581.41;;;-0.52;99.72
23473;BME280;11909;52.516;13.564;2023-01-26T10:24:31;101585.13;;;-0.53;99.78
23473;BME280;11909;52.516;13.564;2023-01-26T10:27:01;101590.34;;;-0.51;99.46
23473;BME280;11909;52.516;13.564;2023-01-26T10:29:28;101586.63;;;-0.50;99.35
23473;BME280;11909;52.516;13.564;2023-01-26T10:31:56;101587.25;;;-0.48;99.27
23473;BME280;11909;52.516;13.564;2023-01-26T10:34:26;101584.00;;;-0.44;99.01
23473;BME280;11909;52.516;13.564;2023-01-26T10:37:01;101575.56;;;-0.55;98.85
23473;BME280;11909;52.516;13.564;2023-01-26T10:39:28;101574.31;;;-0.53;99.18
23473;BME280;11909;52.516;13.564;2023-01-26T10:41:58;101575.06;;;-0.59;99.19
23473;BME280;11909;52.516;13.564;2023-01-26T10:44:35;101567.38;;;-0.62;99.33
23473;BME280;11909;52.516;13.564;2023-01-26T10:47:14;101556.84;;;-0.57;99.83
23473;BME280;11909;52.516;13.564;2023-01-26T10:49:43;101558.78;;;-0.51;99.74
23473;BME280;11909;52.516;13.564;2023-01-26T10:52:15;101561.69;;;-0.52;99.53
23473;BME280;11909;52.516;13.564;2023-01-26T10:54:43;101556.84;;;-0.57;100.00
23473;BME280;11909;52.516;13.564;2023-01-26T10:57:17;101549.78;;;-0.58;100.00
23473;BME280;11909;52.516;13.564;2023-01-26T10:59:52;101546.81;;;-0.63;100.00
23473;BME280;11909;52.516;13.564;2023-01-26T11:02:23;101538.09;;;-0.65;100.00
23473;BME280;11909;52.516;13.564;2023-01-26T11:05:19;101543.28;;;-0.64;100.00
23473;BME280;11909;52.516;13.564;2023-01-26T11:07:49;101536.47;;;-0.60;100.00
23473;BME280;11909;52.516;13.564;2023-01-26T11:10:23;101546.91;;;-0.56;100.00
23473;BME280;11909;52.516;13.564;2023-01-26T11:13:06;101542.16;;;-0.54;100.00
23473;BME280;11909;52.516;13.564;2023-01-26T11:15:38;101541.53;;;-0.56;99.98
23473;BME280;11909;52.516;13.564;2023-01-26T11:18:15;101538.81;;;-0.56;100.00
23473;BME280;11909;52.516;13.564;2023-01-26T11:20:47;101540.28;;;-0.54;100.00
23473;BME280;11909;52.516;13.564;2023-01-26T11:23:23;101539.91;;;-0.51;100.00
23473;BME280;11909;52.516;13.564;2023-01-26T11:29:11;101536.56;;;-0.53;99.93
23473;BME280;11909;52.516;13.564;2023-01-26T11:31:54;101535.28;;;-0.57;100.00
23473;BME280;11909;52.516;13.564;2023-01-26T11:34:31;101531.75;;;-0.57;99.21
23473;BME280;11909;52.516;13.564;2023-01-26T11:37:25;101530.53;;;-0.70;99.51
23473;BME280;11909;52.516;13.564;2023-01-26T11:40:07;101516.03;;;-0.69;99.96
23473;BME280;11909;52.516;13.564;2023-01-26T11:42:43;101520.50;;;-0.61;100.00
23473;BME280;11909;52.516;13.564;2023-01-26T11:45:21;101513.91;;;-0.74;100.00
23473;BME280;11909;52.516;13.564;2023-01-26T11:48:05;101511.94;;;-0.80;100.00
23473;BME280;11909;52.516;13.564;2023-01-26T11:50:40;101506.66;;;-0.73;100.00
23473;BME280;11909;52.516;13.564;2023-01-26T11:53:38;101505.25;;;-0.69;100.00
23473;BME280;11909;52.516;13.564;2023-01-26T11:56:20;101497.44;;;-0.64;100.00
23473;BME280;11909;52.516;13.564;2023-01-26T11:58:53;101502.66;;;-0.62;100.00
23473;BME280;11909;52.516;13.564;2023-01-26T12:01:27;101497.66;;;-0.65;100.00
23473;BME280;11909;52.516;13.564;2023-01-26T12:03:57;101488.69;;;-0.66;100.00
23473;BME280;11909;52.516;13.564;2023-01-26T12:06:28;101493.34;;;-0.60;100.00
23473;BME280;11909;52.516;13.564;2023-01-26T12:09:02;101488.25;;;-0.54;100.00
23473;BME280;11909;52.516;13.564;2023-01-26T12:11:36;101490.09;;;-0.55;100.00
23473;BME280;11909;52.516;13.564;2023-01-26T12:14:14;101482.00;;;-0.55;100.00
23473;BME280;11909;52.516;13.564;2023-01-26T12:16:54;101472.25;;;-0.56;100.00
23473;BME280;11909;52.516;13.564;2023-01-26T12:19:49;101471.22;;;-0.55;100.00
23473;BME280;11909;52.516;13.564;2023-01-26T12:22:23;101460.97;;;-0.60;100.00
23473;BME280;11909;52.516;13.564;2023-01-26T12:24:55;101454.00;;;-0.54;100.00
23473;BME280;11909;52.516;13.564;2023-01-26T12:27:48;101452.25;;;-0.62;100.00
23473;BME280;11909;52.516;13.564;2023-01-26T12:30:32;101452.53;;;-0.56;100.00
23473;BME280;11909;52.516;13.564;2023-01-26T12:33:01;101454.00;;;-0.54;100.00
23473;BME280;11909;52.516;13.564;2023-01-26T12:35:45;101458.63;;;-0.48;100.00
23473;BME280;11909;52.516;13.564;2023-01-26T12:38:18;101461.81;;;-0.44;100.00
23473;BME280;11909;52.516;13.564;2023-01-26T12:40:56;101451.22;;;-0.46;100.00
23473;BME280;11909;52.516;13.564;2023-01-26T12:43:39;101443.31;;;-0.47;100.00
23473;BME280;11909;52.516;13.564;2023-01-26T12:46:12;101446.00;;;-0.47;100.00
23473;BME280;11909;52.516;13.564;2023-01-26T12:48:45;101451.00;;;-0.44;100.00
23473;BME280;11909;52.516;13.564;2023-01-26T12:51:19;101447.13;;;-0.41;100.00
23473;BME280;11909;52.516;13.564;2023-01-26T12:53:53;101450.53;;;-0.48;100.00
23473;BME280;11909;52.516;13.564;2023-01-26T12:56:28;101449.47;;;-0.53;99.12